Saturday, February 28, 2015
20:46 UTC
  |  Log In   |  Register Free
Airport Search:

Raton Municipal/Crews Field Airport
(KRTN)

Raton Municipal/Crews Field Airport Diagram
No Airport Diagram Available

FAA data valid effective January 08, 2015 - March 05, 2015 (unless otherwise noted).

 
 
 
 
 
 
 
 
 
 
 
 
 
 

Current Aviation Weather for Raton Municipal/Crews Field Airport (KRTN)

The most recent METAR observation for KRTN was updated at: 2016
METAR Summary (Translated METAR)
KRTN
282012Z AUTO 23004KT 10SM BKN025 BKN047 OVC075 M07/M11 A2986 RMK AO2 T10721111
KTAD
281954Z AUTO 00000KT 10SM BKN065 OVC080 M07/M11 A2991 RMK AO2 SLP184 T10671106
(32 nm NE from KRTN)
KAXX
281955Z AUTO 00000KT 3SM -SN OVC017 M02/M03 A2984 RMK AO2 P0001 T10191035
(42.6 nm SW from KRTN)
TAF
No TAF information found within 50 nm of KRTN
  Airport Weather Conditions for KRTN

 Current Weather at RTN
20° F
Overcast
West winds at 4.6 mph
RTN NOAA Radar

Pressure: 29.87 in
Humidity: 68%
Wind: West at 4.6 MPH (4 KT)
Dew Point: 10.9°F
Visibility: 10.00 mi


Airport Weather Forecast for KRTN

Translated METAR and TAF for KRTN
Translated METAR for KRTN (2046 UTC 28 February 2015)
found at http://aviationweather.gov/adds/metars/
 
METAR text: KRTN 282022Z AUTO 00000KT 10SM FEW023 BKN047 OVC060 M07/M11 A2986 RMK AO2 T10671106
Conditions at: KRTN (RATON , NM, US) observed 2022 UTC 28 February 2015
Temperature: -6.7°C (20°F)
Dewpoint: -10.6°C (13°F) [RH = 74%]
Pressure (altimeter): 29.86 inches Hg (1011.3 mb)
Winds: calm
Visibility: 10 or more miles (16+ km)
Ceiling: 4700 feet AGL
Clouds: few clouds at 2300 feet AGL
broken clouds at 4700 feet AGL
overcast cloud deck at 6000 feet AGL
Weather: automated observation with no human augmentation;
there may or may not be significant weather present at this time
Translated TAF for KRTN

There is no translated TAF available for this airport

Find All Airport Services Find A Hotel Find A Rental Car Find A Golf Course Find A Restaurant $100 Hamburger



FBO's on the Field
FBO Company Facility Photos Services Transportation Aviation Fuel Prices: Prices include tax
Catering Weather Repair Courtesy Rental Type 100LL JetA JetA+ MOGAS 8087
 
Express Aviation Services

This FBO has not yet been rated
FS:Phillips 66
Last Updated: Feb-13
Login to update fuel prices
SS:
Contact Express Aviation ServicesMore FBO Information
 
Add another FBO Facility Photos Catering Weather Repair Courtesy Rental Type 100LL JetA JetA+ MOGAS 8087
Services Transportation Aviation Fuel Prices: Prices include tax


model-print
model-print
model-print
model-print